Time;durP1;ratioP1;P1;durP2;ratioP2;P2;SDS_P1;SDS_P2;PMS_P1;PMS_P2;Temp;Humidity;BMP_temperature;BMP_pressure;BME280_temperature;BME280_humidity;BME280_pressure;Samples;Min_cycle;Max_cycle;Signal;HPM_P1;HPM_P2
2021/07/27 00:00:35;;;;;;;17.48;8.77;;;666.00;1971.20;;;;;;4998320;28;20554;-75
2021/07/27 00:03:01;;;;;;;16.83;8.68;;;666.00;1971.20;;;;;;5005005;28;20070;-75
2021/07/27 00:05:30;;;;;;;18.63;9.02;;;665.90;1971.20;;;;;;5005458;28;20064;-76
2021/07/27 00:07:56;;;;;;;12.57;8.10;;;666.00;1971.20;;;;;;4999321;28;20034;-76
2021/07/27 00:10:27;;;;;;;16.10;9.23;;;666.00;1971.20;;;;;;4998655;28;20064;-79
2021/07/27 00:12:53;;;;;;;13.98;8.45;;;666.00;1971.20;;;;;;5004841;28;20483;-75
2021/07/27 00:15:20;;;;;;;13.50;8.10;;;665.90;1996.80;;;;;;5004980;28;20034;-75
2021/07/27 00:17:45;;;;;;;18.35;9.07;;;665.90;1996.80;;;;;;4999375;28;20034;-77
2021/07/27 00:20:12;;;;;;;18.73;8.68;;;665.90;2022.40;;;;;;4997549;28;20611;-76
2021/07/27 00:22:41;;;;;;;13.00;8.52;;;665.80;2022.40;;;;;;5001722;28;20018;-76
2021/07/27 00:25:11;;;;;;;15.85;8.00;;;665.70;2048.00;;;;;;4999405;28;20089;-75
2021/07/27 00:27:36;;;;;;;15.63;8.55;;;665.70;2048.00;;;;;;5003852;28;20014;-75
2021/07/27 00:30:06;;;;;;;15.13;8.55;;;665.60;2048.00;;;;;;5001375;28;20102;-77
2021/07/27 00:32:35;;;;;;;13.63;8.23;;;665.70;2048.00;;;;;;5001718;28;20696;-75
2021/07/27 00:35:03;;;;;;;13.25;9.15;;;665.60;2073.60;;;;;;5000808;28;20041;-75
2021/07/27 00:37:31;;;;;;;14.40;9.10;;;640.90;2048.00;;;;;;5002019;28;20014;-76
2021/07/27 00:39:56;;;;;;;12.80;8.20;;;640.90;2048.00;;;;;;5002756;28;20118;-75
2021/07/27 00:42:22;;;;;;;12.40;8.35;;;640.90;2048.00;;;;;;5003150;28;20018;-76
2021/07/27 00:44:48;;;;;;;16.40;9.27;;;640.90;2048.00;;;;;;5004915;28;20084;-76
2021/07/27 00:47:14;;;;;;;11.15;8.50;;;640.90;2048.00;;;;;;5003686;28;20018;-75
2021/07/27 00:49:40;;;;;;;10.70;8.60;;;640.90;2048.00;;;;;;5003326;28;20018;-75
2021/07/27 00:52:06;;;;;;;13.93;8.77;;;640.90;2022.40;;;;;;5001088;28;20030;-77
2021/07/27 00:54:34;;;;;;;19.63;8.50;;;665.60;2048.00;;;;;;5003167;28;20100;-76
2021/07/27 00:57:00;;;;;;;11.35;8.38;;;665.60;2048.00;;;;;;5000037;28;20026;-77
2021/07/27 00:59:29;;;;;;;17.45;7.53;;;665.70;2048.00;;;;;;5002317;28;20034;-76
2021/07/27 01:01:55;;;;;;;12.00;8.23;;;665.70;2022.40;;;;;;5001777;28;20021;-75
2021/07/27 01:04:20;;;;;;;13.10;8.27;;;665.80;2022.40;;;;;;5001846;28;20031;-77
2021/07/27 01:06:47;;;;;;;13.85;8.05;;;665.90;1996.80;;;;;;5000720;28;20113;-75
2021/07/27 01:09:13;;;;;;;15.43;7.97;;;665.90;1996.80;;;;;;5001588;28;20085;-76
2021/07/27 01:11:43;;;;;;;11.02;7.55;;;665.90;1971.20;;;;;;5001476;28;20497;-75
2021/07/27 01:14:10;;;;;;;15.35;8.77;;;665.90;1971.20;;;;;;5001396;28;20030;-76
2021/07/27 01:16:36;;;;;;;13.02;7.78;;;665.90;1971.20;;;;;;5001915;28;20022;-76
2021/07/27 01:39:17;;;;;;;13.00;7.68;;;665.60;1996.80;;;;;;5006553;28;20048;-76
2021/07/27 01:43:34;;;;;;;14.27;7.57;;;640.90;1971.20;;;;;;5005158;28;20030;-77
2021/07/27 01:46:00;;;;;;;15.02;7.70;;;665.70;1971.20;;;;;;5006586;28;20444;-78
2021/07/27 01:48:26;;;;;;;11.45;7.68;;;665.70;1971.20;;;;;;5005804;28;20029;-83
2021/07/27 01:50:51;;;;;;;14.23;7.28;;;665.70;1971.20;;;;;;5002707;28;20091;-77
2021/07/27 01:53:26;;;;;;;14.40;8.30;;;665.80;1945.60;;;;;;4995054;28;20030;-76
2021/07/27 01:55:56;;;;;;;13.23;7.57;;;665.80;1945.60;;;;;;5002409;28;20514;-75
2021/07/27 01:58:22;;;;;;;11.75;7.03;;;665.80;1945.60;;;;;;5004391;28;20061;-76
2021/07/27 02:00:48;;;;;;;17.10;8.40;;;665.70;1945.60;;;;;;5003758;28;20061;-75
2021/07/27 02:03:15;;;;;;;12.15;7.38;;;665.80;1945.60;;;;;;5005692;28;20535;-75
2021/07/27 02:05:41;;;;;;;14.20;8.20;;;665.90;1945.60;;;;;;5004196;28;20022;-76
2021/07/27 02:08:06;;;;;;;17.33;9.48;;;665.90;1945.60;;;;;;5003404;28;20538;-75
2021/07/27 02:10:32;;;;;;;16.05;8.20;;;665.90;1945.60;;;;;;5005610;28;20049;-75
2021/07/27 02:13:02;;;;;;;15.15;8.05;;;666.00;1920.00;;;;;;5002226;28;20023;-75
2021/07/27 02:15:46;;;;;;;17.63;7.88;;;666.00;1920.00;;;;;;5003575;28;20471;-77
2021/07/27 02:18:11;;;;;;;16.15;8.25;;;666.00;1920.00;;;;;;5004632;28;20042;-76
2021/07/27 02:20:37;;;;;;;19.27;8.13;;;666.00;1920.00;;;;;;5005013;28;20369;-76
2021/07/27 02:23:05;;;;;;;15.52;8.65;;;666.00;1920.00;;;;;;5006606;28;20018;-76
2021/07/27 02:25:32;;;;;;;13.85;7.82;;;666.00;1920.00;;;;;;5004402;28;20383;-75
2021/07/27 02:27:58;;;;;;;15.45;8.32;;;666.00;1920.00;;;;;;5003924;28;20030;-76
2021/07/27 02:30:30;;;;;;;17.77;8.02;;;665.90;1920.00;;;;;;5003785;28;20026;-76
2021/07/27 02:32:56;;;;;;;13.45;7.28;;;665.80;1945.60;;;;;;5002288;28;20033;-76
2021/07/27 02:35:23;;;;;;;21.65;7.97;;;665.80;1945.60;;;;;;5004319;28;20022;-76
2021/07/27 02:37:49;;;;;;;13.55;8.00;;;665.80;1945.60;;;;;;5002905;28;20030;-75
2021/07/27 02:40:15;;;;;;;12.38;7.22;;;665.60;1945.60;;;;;;5003622;28;20105;-76
2021/07/27 02:42:41;;;;;;;15.60;7.22;;;665.60;1945.60;;;;;;5004108;28;20037;-75
2021/07/27 02:45:11;;;;;;;18.10;7.65;;;665.60;1945.60;;;;;;5003971;28;20026;-76
2021/07/27 02:47:41;;;;;;;17.50;8.25;;;640.90;1945.60;;;;;;5003171;28;20105;-76
2021/07/27 02:50:08;;;;;;;20.70;9.10;;;640.90;1945.60;;;;;;5003216;28;20029;-76
2021/07/27 02:52:34;;;;;;;15.05;7.43;;;640.90;1945.60;;;;;;5004645;28;20479;-76
2021/07/27 02:55:00;;;;;;;18.92;7.63;;;640.90;1945.60;;;;;;5004115;28;20515;-75
2021/07/27 02:57:26;;;;;;;11.90;7.20;;;665.70;1945.60;;;;;;5004450;28;20041;-76
2021/07/27 02:59:59;;;;;;;16.67;8.07;;;665.90;1920.00;;;;;;5003850;28;20030;-76
2021/07/27 03:02:28;;;;;;;19.17;7.32;;;665.90;1920.00;;;;;;5002097;28;20018;-75
2021/07/27 03:04:54;;;;;;;16.60;8.73;;;665.70;1945.60;;;;;;5001836;28;20487;-75
2021/07/27 03:07:20;;;;;;;14.52;8.40;;;665.70;1945.60;;;;;;5004853;28;20029;-75
2021/07/27 03:12:31;;;;;;;13.80;7.82;;;665.70;1971.20;;;;;;5004009;28;20032;-75
2021/07/27 03:15:00;;;;;;;16.70;8.77;;;665.70;1945.60;;;;;;5004369;28;20386;-75
2021/07/27 03:17:27;;;;;;;18.88;7.43;;;665.60;1945.60;;;;;;5002980;28;20046;-75
2021/07/27 03:19:52;;;;;;;19.73;7.97;;;640.80;1945.60;;;;;;5001915;28;20117;-75
2021/07/27 03:22:22;;;;;;;13.98;7.80;;;640.90;1945.60;;;;;;5004684;28;20160;-75
2021/07/27 03:24:48;;;;;;;14.63;8.27;;;640.70;1971.20;;;;;;5003192;28;20101;-76
2021/07/27 03:27:14;;;;;;;13.68;7.78;;;640.80;1945.60;;;;;;5003278;28;20050;-77
2021/07/27 03:29:40;;;;;;;23.08;8.77;;;640.60;1971.20;;;;;;5004587;28;20023;-75
2021/07/27 03:32:06;;;;;;;14.65;7.65;;;640.60;1971.20;;;;;;5005250;28;20026;-75
2021/07/27 03:34:31;;;;;;;24.95;9.60;;;640.60;1971.20;;;;;;5001900;28;20439;-74
2021/07/27 03:36:57;;;;;;;18.25;7.85;;;640.40;1996.80;;;;;;5002974;28;20113;-75
2021/07/27 03:39:23;;;;;;;13.73;7.70;;;640.30;1996.80;;;;;;5001824;28;20472;-76
2021/07/27 03:41:48;;;;;;;17.42;8.45;;;640.40;1996.80;;;;;;5002104;28;20018;-75
2021/07/27 03:44:17;;;;;;;10.63;7.75;;;640.20;2022.40;;;;;;5004163;28;20508;-76
2021/07/27 03:46:43;;;;;;;15.38;8.05;;;640.20;2022.40;;;;;;5003411;28;20021;-75
2021/07/27 03:49:09;;;;;;;13.23;8.15;;;640.10;2022.40;;;;;;5003756;28;20029;-75
2021/07/27 03:51:34;;;;;;;13.98;7.93;;;640.10;2022.40;;;;;;5002634;28;20109;-75
2021/07/27 03:54:00;;;;;;;13.15;7.43;;;640.00;2048.00;;;;;;5001671;28;20389;-76
2021/07/27 03:56:26;;;;;;;16.10;8.25;;;640.00;2048.00;;;;;;5004899;28;20022;-76
2021/07/27 03:58:51;;;;;;;16.25;8.05;;;640.00;2048.00;;;;;;5003144;28;20052;-76
2021/07/27 04:01:17;;;;;;;14.70;8.35;;;640.00;2048.00;;;;;;5003717;28;20388;-78
2021/07/27 04:03:43;;;;;;;18.30;8.60;;;640.00;2048.00;;;;;;5000437;28;20080;-76
2021/07/27 04:06:09;;;;;;;15.75;8.88;;;615.30;2048.00;;;;;;5001936;28;20384;-75
2021/07/27 04:08:35;;;;;;;16.23;8.52;;;615.30;2073.60;;;;;;5001059;28;20026;-75
2021/07/27 04:11:03;;;;;;;17.23;8.32;;;615.30;2073.60;;;;;;5005629;28;20042;-76
2021/07/27 04:13:33;;;;;;;14.05;8.50;;;615.30;2073.60;;;;;;5002355;28;20053;-75
2021/07/27 04:16:03;;;;;;;11.75;7.95;;;640.00;2073.60;;;;;;5001921;28;20018;-75
2021/07/27 04:18:29;;;;;;;18.00;8.30;;;615.30;2073.60;;;;;;5002006;28;20086;-75
2021/07/27 04:20:58;;;;;;;17.08;9.48;;;615.30;2073.60;;;;;;5002642;28;20488;-75
2021/07/27 04:23:24;;;;;;;14.80;8.48;;;640.10;2048.00;;;;;;5006479;28;20030;-75
2021/07/27 04:25:49;;;;;;;14.90;8.93;;;640.00;2048.00;;;;;;5001990;28;20097;-75
2021/07/27 04:28:15;;;;;;;29.63;9.18;;;640.10;2048.00;;;;;;5001734;28;20027;-75
2021/07/27 04:30:41;;;;;;;21.83;9.05;;;640.00;2048.00;;;;;;5001809;28;20049;-75
2021/07/27 04:33:07;;;;;;;23.23;9.55;;;640.20;2048.00;;;;;;5000324;28;20065;-76
2021/07/27 04:35:32;;;;;;;17.23;9.10;;;640.20;2048.00;;;;;;5001648;28;20048;-76
2021/07/27 04:37:58;;;;;;;16.65;8.60;;;640.20;2022.40;;;;;;5001703;28;20018;-75
2021/07/27 04:40:24;;;;;;;26.65;9.55;;;640.30;2022.40;;;;;;5003697;28;20096;-77
2021/07/27 04:42:50;;;;;;;13.85;8.88;;;640.30;2022.40;;;;;;4999677;28;20045;-75
2021/07/27 04:45:16;;;;;;;18.15;9.02;;;640.30;2022.40;;;;;;5001706;28;20058;-76
2021/07/27 04:47:42;;;;;;;13.18;8.38;;;640.40;2022.40;;;;;;5002206;28;21068;-76
2021/07/27 04:50:08;;;;;;;18.17;8.32;;;640.50;2022.40;;;;;;5001570;28;20472;-75
2021/07/27 04:52:35;;;;;;;23.27;8.57;;;640.50;1996.80;;;;;;5005386;28;20494;-75
2021/07/27 04:55:01;;;;;;;18.30;8.30;;;640.50;1996.80;;;;;;5006908;28;20050;-76
2021/07/27 04:57:27;;;;;;;13.70;8.57;;;640.60;2022.40;;;;;;5005095;28;20029;-77
2021/07/27 04:59:52;;;;;;;12.77;7.65;;;640.60;1996.80;;;;;;5005479;28;20116;-77
2021/07/27 05:02:19;;;;;;;16.70;8.25;;;640.70;2022.40;;;;;;5002628;28;20037;-76
2021/07/27 05:04:46;;;;;;;25.95;9.32;;;640.70;2022.40;;;;;;5005792;28;20029;-78
2021/07/27 05:07:12;;;;;;;21.88;8.13;;;665.60;2048.00;;;;;;5006902;28;20030;-83
2021/07/27 05:09:38;;;;;;;14.90;7.32;;;640.70;2022.40;;;;;;5004559;28;20058;-79
2021/07/27 05:12:04;;;;;;;22.20;8.45;;;640.80;2048.00;;;;;;5005564;28;20501;-78
2021/07/27 05:14:30;;;;;;;12.63;7.40;;;640.70;2048.00;;;;;;5004191;28;20022;-78
2021/07/27 05:17:05;;;;;;;15.63;8.52;;;640.80;2048.00;;;;;;5004516;28;20053;-77
2021/07/27 05:19:30;;;;;;;16.65;8.65;;;640.80;2048.00;;;;;;5020510;28;20137;-83
2021/07/27 05:21:56;;;;;;;15.63;8.13;;;640.90;2048.00;;;;;;5005578;28;20503;-76
2021/07/27 05:24:22;;;;;;;15.45;8.63;;;640.90;2048.00;;;;;;5006146;28;20022;-78
2021/07/27 05:26:47;;;;;;;20.13;9.65;;;665.60;2073.60;;;;;;5005622;28;20018;-78
2021/07/27 05:29:13;;;;;;;14.18;7.90;;;665.70;2073.60;;;;;;5004128;28;20038;-77
2021/07/27 05:31:39;;;;;;;17.70;9.55;;;665.70;2073.60;;;;;;5004080;28;20025;-77
2021/07/27 05:34:07;;;;;;;19.70;9.05;;;665.80;2073.60;;;;;;5005150;28;20558;-77
2021/07/27 05:36:33;;;;;;;19.27;8.73;;;665.90;2048.00;;;;;;5005090;28;20022;-76
2021/07/27 05:38:58;;;;;;;20.30;8.88;;;666.00;2048.00;;;;;;5003938;28;20080;-77
2021/07/27 05:41:24;;;;;;;13.88;8.23;;;666.10;2073.60;;;;;;5006414;28;20025;-77
2021/07/27 05:43:51;;;;;;;14.50;8.48;;;666.10;2048.00;;;;;;5007001;28;20024;-78
2021/07/27 05:46:16;;;;;;;19.83;8.60;;;666.10;2048.00;;;;;;5004011;28;20021;-79
2021/07/27 05:48:43;;;;;;;16.67;8.90;;;666.20;2073.60;;;;;;5002313;28;20029;-76
2021/07/27 05:51:10;;;;;;;19.20;8.93;;;666.20;2073.60;;;;;;5004382;28;20485;-78
2021/07/27 05:53:36;;;;;;;16.17;7.93;;;666.30;2073.60;;;;;;5005833;28;20030;-77
2021/07/27 05:56:02;;;;;;;15.50;8.63;;;666.50;2073.60;;;;;;5004136;28;20377;-78
2021/07/27 05:58:27;;;;;;;19.80;9.35;;;666.50;2073.60;;;;;;5004515;28;20038;-78
2021/07/27 06:00:53;;;;;;;20.02;9.40;;;691.20;2073.60;;;;;;5004810;28;20148;-79
2021/07/27 06:03:19;;;;;;;15.82;8.32;;;691.30;2048.00;;;;;;5003516;28;20079;-79
2021/07/27 06:05:50;;;;;;;16.17;9.32;;;691.40;2048.00;;;;;;5002576;28;20070;-78
2021/07/27 06:08:15;;;;;;;21.52;8.93;;;691.60;2022.40;;;;;;5005539;28;20022;-80
2021/07/27 06:10:41;;;;;;;15.30;9.10;;;691.60;1996.80;;;;;;5003159;28;20049;-86
2021/07/27 06:13:07;;;;;;;15.65;9.85;;;691.60;2022.40;;;;;;5005416;28;20069;-83
2021/07/27 06:15:32;;;;;;;22.05;9.95;;;691.70;2022.40;;;;;;5005047;28;20026;-83
2021/07/27 06:17:59;;;;;;;17.17;8.00;;;691.70;2022.40;;;;;;5002739;28;20025;-83
2021/07/27 06:20:25;;;;;;;16.55;8.80;;;691.80;2022.40;;;;;;5005039;28;20124;-84
2021/07/27 06:22:51;;;;;;;18.48;9.43;;;691.90;1996.80;;;;;;5004451;28;20110;-83
2021/07/27 06:25:17;;;;;;;18.15;9.57;;;692.00;2022.40;;;;;;5002981;28;20487;-82
2021/07/27 06:27:42;;;;;;;25.38;10.45;;;692.10;1996.80;;;;;;4995440;28;20081;-77
2021/07/27 06:30:10;;;;;;;16.17;9.27;;;716.80;2022.40;;;;;;4993865;28;20047;-79
2021/07/27 06:32:36;;;;;;;17.77;9.50;;;717.00;1996.80;;;;;;4993805;28;20038;-77
2021/07/27 06:35:02;;;;;;;21.25;10.95;;;717.10;2022.40;;;;;;4994862;28;20026;-77
2021/07/27 06:37:27;;;;;;;17.25;10.35;;;717.20;1996.80;;;;;;4993712;28;20062;-75
2021/07/27 06:39:53;;;;;;;17.77;9.90;;;717.20;1996.80;;;;;;4994741;28;20039;-76
2021/07/27 06:42:19;;;;;;;19.80;9.88;;;717.30;1971.20;;;;;;4995145;28;20019;-78
2021/07/27 06:44:44;;;;;;;18.48;9.27;;;717.50;1971.20;;;;;;5004002;28;20049;-75
2021/07/27 06:47:10;;;;;;;18.35;11.15;;;717.50;1996.80;;;;;;5014578;28;20057;-77
2021/07/27 06:49:36;;;;;;;16.52;10.13;;;717.60;1996.80;;;;;;5013160;28;20073;-77
2021/07/27 06:52:02;;;;;;;18.63;9.85;;;717.60;1945.60;;;;;;5014223;28;20388;-80
2021/07/27 06:54:28;;;;;;;23.77;10.23;;;717.70;1945.60;;;;;;5014183;28;20054;-77
2021/07/27 06:56:56;;;;;;;28.15;10.63;;;717.70;1945.60;;;;;;5007241;28;20572;-84
2021/07/27 06:59:25;;;;;;;22.05;11.02;;;717.70;1971.20;;;;;;5003732;28;20120;-85
2021/07/27 07:01:51;;;;;;;17.85;9.65;;;742.40;1971.20;;;;;;5006058;28;20025;-79
2021/07/27 07:04:17;;;;;;;18.90;10.20;;;742.50;1945.60;;;;;;5009404;28;20026;-79
2021/07/27 07:06:43;;;;;;;18.77;10.45;;;742.50;1996.80;;;;;;4993030;28;20031;-84
2021/07/27 07:09:09;;;;;;;25.60;11.32;;;742.60;1971.20;;;;;;4994549;28;20491;-79
2021/07/27 07:11:35;;;;;;;16.83;9.88;;;742.70;1945.60;;;;;;4993436;28;20058;-80
2021/07/27 07:14:01;;;;;;;15.20;10.18;;;742.80;1945.60;;;;;;4992988;28;20492;-77
2021/07/27 07:16:27;;;;;;;19.27;11.68;;;742.90;1971.20;;;;;;4994245;28;20022;-78
2021/07/27 07:18:53;;;;;;;21.45;10.65;;;743.00;1971.20;;;;;;4993375;28;20117;-78
2021/07/27 07:21:18;;;;;;;19.30;10.82;;;743.00;1945.60;;;;;;4993802;28;20041;-78
2021/07/27 07:23:44;;;;;;;21.60;10.93;;;743.00;1894.40;;;;;;5007666;28;20391;-81
2021/07/27 07:26:10;;;;;;;17.23;10.15;;;743.10;1894.40;;;;;;5013659;28;20030;-81
2021/07/27 07:28:37;;;;;;;20.95;9.88;;;743.20;1894.40;;;;;;5013919;28;20503;-81
2021/07/27 07:31:03;;;;;;;20.33;10.93;;;768.00;1868.80;;;;;;5012860;28;20057;-83
2021/07/27 07:33:29;;;;;;;25.58;10.80;;;768.10;1920.00;;;;;;5013236;28;20040;-82
2021/07/27 07:35:55;;;;;;;18.33;10.40;;;768.10;1868.80;;;;;;5012589;28;20030;-81
2021/07/27 07:38:21;;;;;;;18.10;10.45;;;768.20;1868.80;;;;;;5013773;28;20503;-80
2021/07/27 07:40:47;;;;;;;23.13;10.75;;;768.20;1894.40;;;;;;5003166;28;20029;-80
2021/07/27 07:43:12;;;;;;;17.67;10.15;;;768.30;1868.80;;;;;;5001609;28;20030;-79
2021/07/27 07:45:38;;;;;;;20.92;10.85;;;768.40;1868.80;;;;;;5002111;28;20021;-80
2021/07/27 07:48:04;;;;;;;28.00;10.77;;;768.40;1894.40;;;;;;5003229;28;20789;-80
2021/07/27 07:50:31;;;;;;;27.48;11.13;;;768.60;1843.20;;;;;;5002724;28;20116;-78
2021/07/27 07:53:01;;;;;;;21.08;11.02;;;768.70;1792.00;;;;;;5001788;28;20041;-82
2021/07/27 07:55:28;;;;;;;22.42;10.85;;;768.70;1792.00;;;;;;4996424;28;20141;-79
2021/07/27 07:57:54;;;;;;;21.80;10.40;;;768.80;1792.00;;;;;;5012711;28;20052;-79
2021/07/27 08:00:20;;;;;;;16.88;10.20;;;768.80;1817.60;;;;;;5011913;28;20029;-79
2021/07/27 08:02:46;;;;;;;19.67;9.93;;;768.80;1792.00;;;;;;5011929;28;20029;-79
2021/07/27 08:05:12;;;;;;;21.67;10.77;;;768.80;1792.00;;;;;;5012029;28;20033;-79
2021/07/27 08:07:37;;;;;;;22.02;12.00;;;768.90;1792.00;;;;;;5013584;28;20034;-79
2021/07/27 08:10:03;;;;;;;24.27;11.63;;;793.80;1792.00;;;;;;5003361;28;20559;-80
2021/07/27 08:12:29;;;;;;;20.55;10.50;;;794.00;1792.00;;;;;;5003255;28;20024;-81
2021/07/27 08:14:55;;;;;;;19.30;10.80;;;794.00;1740.80;;;;;;4996368;28;20034;-79
2021/07/27 08:17:20;;;;;;;17.40;10.02;;;794.10;1766.40;;;;;;4993526;28;20468;-79
2021/07/27 08:19:46;;;;;;;17.98;10.27;;;794.30;1689.60;;;;;;4991883;28;20042;-87
2021/07/27 08:22:12;;;;;;;22.10;10.05;;;794.40;1689.60;;;;;;5004994;28;20499;-83
2021/07/27 08:24:38;;;;;;;20.83;10.77;;;794.50;1664.00;;;;;;5001753;28;20494;-79
2021/07/27 08:27:08;;;;;;;14.73;8.73;;;794.50;1612.80;;;;;;5008942;28;20033;-79
2021/07/27 08:29:38;;;;;;;21.35;10.00;;;794.50;1536.00;;;;;;5004182;28;20422;-79
2021/07/27 08:32:10;;;;;;;18.60;10.23;;;794.50;1664.00;;;;;;4996058;28;20030;-79
2021/07/27 08:34:44;;;;;;;22.70;10.10;;;819.30;1638.40;;;;;;4995988;28;20034;-79
2021/07/27 08:37:10;;;;;;;17.73;9.55;;;819.50;1689.60;;;;;;4997424;28;20495;-79
2021/07/27 08:39:36;;;;;;;23.65;9.90;;;819.60;1664.00;;;;;;4996030;28;20046;-77
2021/07/27 08:42:04;;;;;;;22.50;8.68;;;819.60;1612.80;;;;;;4997115;28;20015;-82
2021/07/27 08:44:34;;;;;;;19.52;9.35;;;819.60;1587.20;;;;;;5005380;28;20018;-77
2021/07/27 08:47:01;;;;;;;22.67;10.00;;;819.60;1587.20;;;;;;5007768;28;20018;-80
2021/07/27 08:49:29;;;;;;;19.73;9.15;;;819.60;1638.40;;;;;;5006093;28;20053;-75
2021/07/27 08:51:55;;;;;;;21.00;8.77;;;819.60;1638.40;;;;;;5007144;28;20019;-78
2021/07/27 08:54:21;;;;;;;23.02;8.95;;;819.60;1587.20;;;;;;5006687;28;20057;-76
2021/07/27 08:56:52;;;;;;;15.82;8.73;;;819.80;1459.20;;;;;;5006039;28;20018;-78
2021/07/27 08:59:19;;;;;;;25.27;9.07;;;819.80;1484.80;;;;;;5003940;28;20555;-78
2021/07/27 09:01:45;;;;;;;21.75;8.10;;;819.80;1433.60;;;;;;5013215;28;20494;-80
2021/07/27 09:04:11;;;;;;;20.98;8.55;;;819.80;1433.60;;;;;;5015038;28;20113;-79
2021/07/27 09:06:37;;;;;;;22.00;9.05;;;819.80;1433.60;;;;;;5013940;28;20044;-78
2021/07/27 09:09:10;;;;;;;15.43;8.88;;;820.00;1459.20;;;;;;5014409;28;20108;-78
2021/07/27 09:11:47;;;;;;;18.42;8.82;;;820.10;1433.60;;;;;;5015498;28;20032;-79
2021/07/27 09:14:15;;;;;;;18.70;8.30;;;820.10;1433.60;;;;;;5013444;28;20022;-79
2021/07/27 09:16:45;;;;;;;19.23;8.95;;;820.10;1433.60;;;;;;5023792;28;20065;-79
2021/07/27 09:19:10;;;;;;;21.90;8.98;;;844.80;1510.40;;;;;;5010260;28;20044;-78
2021/07/27 09:21:37;;;;;;;16.60;8.93;;;844.90;1459.20;;;;;;5014792;28;20034;-82
2021/07/27 09:24:03;;;;;;;18.75;9.05;;;844.90;1433.60;;;;;;5014505;28;20030;-78
2021/07/27 09:26:29;;;;;;;24.55;8.93;;;845.00;1459.20;;;;;;5015820;28;20026;-78
2021/07/27 09:29:02;;;;;;;18.92;7.85;;;845.20;1459.20;;;;;;5014701;28;20041;-79
2021/07/27 09:31:28;;;;;;;26.10;9.45;;;845.20;1433.60;;;;;;5015984;28;20026;-78
2021/07/27 09:33:54;;;;;;;24.05;9.25;;;845.20;1510.40;;;;;;5015682;28;20144;-78
2021/07/27 09:36:27;;;;;;;19.75;9.73;;;845.40;1459.20;;;;;;5015722;28;20105;-80
2021/07/27 09:39:04;;;;;;;21.42;8.95;;;845.40;1459.20;;;;;;5013418;28;20487;-78
2021/07/27 09:41:31;;;;;;;15.88;8.82;;;845.60;1510.40;;;;;;5013173;28;20088;-77
2021/07/27 09:44:16;;;;;;;23.92;9.48;;;845.70;1459.20;;;;;;5013829;28;20507;-76
2021/07/27 09:46:46;;;;;;;17.23;8.75;;;870.40;1459.20;;;;;;5014480;28;20022;-78
2021/07/27 09:49:17;;;;;;;19.23;8.85;;;870.40;1459.20;;;;;;5014206;28;20120;-78
2021/07/27 09:51:44;;;;;;;20.27;8.90;;;870.50;1408.00;;;;;;5010849;28;20026;-78
2021/07/27 09:54:11;;;;;;;22.60;8.75;;;870.60;1382.40;;;;;;5006032;28;20092;-78
2021/07/27 09:56:37;;;;;;;21.42;8.55;;;870.80;1459.20;;;;;;5005467;28;20476;-81
2021/07/27 09:59:03;;;;;;;18.85;7.70;;;870.90;1408.00;;;;;;5006051;28;20194;-77
2021/07/27 10:01:29;;;;;;;15.52;7.95;;;870.90;1433.60;;;;;;4995018;28;20452;-84
2021/07/27 10:04:01;;;;;;;20.60;8.95;;;871.00;1382.40;;;;;;4995798;28;20027;-80
2021/07/27 10:06:33;;;;;;;21.92;8.00;;;871.10;1331.20;;;;;;4994515;28;20038;-80
2021/07/27 10:09:01;;;;;;;14.48;7.90;;;871.30;1305.60;;;;;;4995534;28;20101;-78
2021/07/27 10:11:38;;;;;;;14.23;7.57;;;896.00;1280.00;;;;;;4995647;28;20033;-79
2021/07/27 10:14:07;;;;;;;20.23;8.63;;;871.30;1280.00;;;;;;4995277;28;20562;-78
2021/07/27 10:16:33;;;;;;;16.13;7.50;;;896.10;1305.60;;;;;;5002418;28;20022;-78
2021/07/27 10:19:09;;;;;;;19.88;8.93;;;896.20;1254.40;;;;;;5015140;28;20042;-77
2021/07/27 10:21:35;;;;;;;14.00;7.75;;;896.50;1254.40;;;;;;5014273;28;20116;-76
2021/07/27 10:24:20;;;;;;;17.55;8.68;;;896.60;1228.80;;;;;;5014858;28;20551;-79
2021/07/27 10:26:46;;;;;;;19.60;8.43;;;896.50;1305.60;;;;;;5015024;28;20161;-77
2021/07/27 10:29:13;;;;;;;24.23;7.70;;;896.60;1228.80;;;;;;5014607;28;20026;-77
2021/07/27 10:31:41;;;;;;;16.52;6.95;;;896.70;1254.40;;;;;;5012957;28;20418;-78
2021/07/27 10:34:09;;;;;;;16.83;6.70;;;896.90;1177.60;;;;;;5013478;28;20034;-81
2021/07/27 10:36:38;;;;;;;21.30;7.60;;;921.60;1177.60;;;;;;5014973;28;20479;-82
2021/07/27 10:39:17;;;;;;;16.10;7.32;;;921.60;1228.80;;;;;;5014932;28;20060;-80
2021/07/27 10:41:51;;;;;;;18.20;7.00;;;921.80;1152.00;;;;;;5002652;28;20018;-80
2021/07/27 10:59:48;;;;;;;21.77;7.32;;;922.00;1177.60;;;;;;5109534;27;20396;-79
2021/07/27 11:02:14;;;;;;;23.27;7.22;;;947.40;1126.40;;;;;;5109474;28;20027;-79
2021/07/27 11:04:40;;;;;;;15.20;6.57;;;947.40;1100.80;;;;;;5108271;28;20067;-85
2021/07/27 11:07:19;;;;;;;23.50;6.97;;;947.30;1075.20;;;;;;5107986;28;20058;-79
2021/07/27 11:10:05;;;;;;;14.45;7.13;;;947.50;1126.40;;;;;;5107519;28;20607;-82
2021/07/27 11:12:34;;;;;;;23.85;6.72;;;947.50;1075.20;;;;;;5109283;28;20032;-80
2021/07/27 11:15:10;;;;;;;15.35;5.88;;;947.40;1024.00;;;;;;5107709;28;20111;-85
2021/07/27 11:17:57;;;;;;;18.00;7.00;;;947.50;1049.60;;;;;;5105210;28;20032;-80
2021/07/27 11:20:38;;;;;;;15.35;5.97;;;922.50;1100.80;;;;;;5106064;28;20024;-83
2021/07/27 11:23:11;;;;;;;17.02;6.32;;;922.50;1100.80;;;;;;5107484;28;20047;-82
2021/07/27 11:25:37;;;;;;;20.55;6.38;;;947.30;1024.00;;;;;;5106835;28;20028;-81
2021/07/27 11:28:14;;;;;;;27.17;6.70;;;922.40;1100.80;;;;;;5107147;28;20114;-83
2021/07/27 11:30:41;;;;;;;24.65;6.93;;;947.40;1075.20;;;;;;5105311;28;20023;-81
2021/07/27 11:33:18;;;;;;;17.80;6.38;;;947.40;1075.20;;;;;;5107319;28;20031;-85
2021/07/27 11:35:55;;;;;;;21.60;7.05;;;947.50;1024.00;;;;;;5108468;28;20070;-81
2021/07/27 11:38:24;;;;;;;16.10;6.00;;;973.00;998.40;;;;;;5107427;28;20031;-82
2021/07/27 11:41:02;;;;;;;18.02;5.90;;;998.50;972.80;;;;;;5108003;28;20476;-86
2021/07/27 11:43:39;;;;;;;14.60;5.82;;;998.90;972.80;;;;;;5110309;28;20034;-87
2021/07/27 11:46:16;;;;;;;24.08;14.70;;;999.30;921.60;;;;;;5108467;28;20019;-79
2021/07/27 11:48:54;;;;;;;16.00;6.68;;;1024.30;921.60;;;;;;5105678;28;20032;-81
2021/07/27 11:51:30;;;;;;;19.95;6.43;;;1024.40;896.00;;;;;;5104777;28;20031;-80
2021/07/27 11:53:56;;;;;;;21.83;6.43;;;1024.10;921.60;;;;;;5106145;28;20539;-83
2021/07/27 11:56:23;;;;;;;24.67;7.00;;;999.00;947.20;;;;;;5107778;28;20028;-86
2021/07/27 11:58:58;;;;;;;13.23;6.32;;;998.90;921.60;;;;;;5105004;28;20127;-87
2021/07/27 12:01:34;;;;;;;16.40;6.38;;;1024.00;947.20;;;;;;5093609;28;20060;-81
2021/07/27 12:03:59;;;;;;;16.73;6.10;;;1024.40;896.00;;;;;;5091687;28;20031;-80
2021/07/27 12:06:25;;;;;;;28.88;7.20;;;1024.50;896.00;;;;;;5093999;28;20020;-83
2021/07/27 12:08:51;;;;;;;18.83;6.60;;;1024.60;921.60;;;;;;5093194;28;20077;-79
2021/07/27 12:11:17;;;;;;;15.20;5.50;;;1049.60;921.60;;;;;;5089856;28;20074;-80
2021/07/27 12:13:43;;;;;;;18.92;6.82;;;1050.00;870.40;;;;;;5094853;28;20020;-81
2021/07/27 12:16:08;;;;;;;21.23;7.72;;;1050.10;921.60;;;;;;5093090;28;20054;-88
2021/07/27 12:18:34;;;;;;;16.63;5.90;;;1024.60;870.40;;;;;;5093968;28;20055;-80
2021/07/27 12:21:00;;;;;;;17.85;6.65;;;1024.60;896.00;;;;;;5093173;28;20473;-82
2021/07/27 12:23:26;;;;;;;21.88;6.85;;;1049.70;921.60;;;;;;5093171;28;20036;-79
2021/07/27 12:25:51;;;;;;;15.73;5.53;;;1049.80;870.40;;;;;;5093434;28;20024;-79
2021/07/27 12:28:17;;;;;;;19.10;6.35;;;1049.70;921.60;;;;;;5092812;28;20044;-87
2021/07/27 12:30:43;;;;;;;16.38;6.28;;;1049.60;921.60;;;;;;5093665;28;20023;-79
2021/07/27 12:33:12;;;;;;;16.42;6.28;;;1049.80;870.40;;;;;;5092839;28;20039;-83
2021/07/27 12:35:38;;;;;;;22.70;6.60;;;1049.80;896.00;;;;;;5093010;28;20073;-83
2021/07/27 12:38:07;;;;;;;16.55;5.90;;;1049.80;870.40;;;;;;5093253;28;20020;-81
2021/07/27 12:40:33;;;;;;;22.55;6.45;;;1049.60;844.80;;;;;;5093495;28;20113;-86
2021/07/27 12:42:59;;;;;;;14.10;6.25;;;1049.70;896.00;;;;;;5092382;28;20035;-81
2021/07/27 12:45:25;;;;;;;14.27;6.00;;;1050.10;870.40;;;;;;5093316;28;20032;-78
2021/07/27 12:47:51;;;;;;;22.40;7.18;;;1050.40;819.20;;;;;;5093032;28;20034;-79